Time;durP1;ratioP1;P1;durP2;ratioP2;P2;SDS_P1;SDS_P2;PMS_P1;PMS_P2;Temp;Humidity;BMP_temperature;BMP_pressure;BME280_temperature;BME280_humidity;BME280_pressure;Samples;Min_cycle;Max_cycle;Signal;HPM_P1;HPM_P2
2023/09/24 00:00:10;;;;;;;5.85;3.80;;;;;;;10.23;100.00;101466.44;693206;28;904;-65
2023/09/24 00:00:32;;;;;;;5.13;3.67;;;;;;;10.22;100.00;101472.50;691435;28;1693;-65
2023/09/24 00:00:56;;;;;;;5.55;4.00;;;;;;;10.21;100.00;101470.75;691847;28;1537;-65
2023/09/24 00:01:17;;;;;;;6.97;4.00;;;;;;;10.20;100.00;101468.13;689227;28;4531;-65
2023/09/24 00:01:38;;;;;;;5.97;3.92;;;;;;;10.19;100.00;101472.50;688407;28;1579;-66
2023/09/24 00:01:58;;;;;;;5.40;3.90;;;;;;;10.18;100.00;101470.72;689822;28;908;-64
2023/09/24 00:02:19;;;;;;;5.97;3.60;;;;;;;10.19;100.00;101477.72;686331;28;1822;-64
2023/09/24 00:02:40;;;;;;;6.65;3.63;;;;;;;10.22;100.00;101471.66;687706;28;1301;-64
2023/09/24 00:03:00;;;;;;;5.60;3.70;;;;;;;10.22;100.00;101475.13;687956;28;1008;-65
2023/09/24 00:03:21;;;;;;;5.57;3.70;;;;;;;10.23;100.00;101474.28;688759;28;1112;-67
2023/09/24 00:03:41;;;;;;;6.07;3.83;;;;;;;10.23;100.00;101474.28;689871;28;904;-64
2023/09/24 00:04:02;;;;;;;5.18;3.65;;;;;;;10.22;100.00;101475.13;690697;28;849;-65
2023/09/24 00:04:23;;;;;;;5.57;3.60;;;;;;;10.21;100.00;101480.34;690914;28;4473;-65
2023/09/24 00:04:44;;;;;;;4.97;3.42;;;;;;;10.20;100.00;101479.47;692816;28;1205;-65
2023/09/24 00:05:06;;;;;;;5.80;3.50;;;;;;;10.19;100.00;101475.09;693307;28;1044;-65
2023/09/24 00:05:27;;;;;;;5.25;3.80;;;;;;;10.21;100.00;101475.97;687013;28;1971;-65
2023/09/24 00:05:47;;;;;;;6.03;3.90;;;;;;;10.23;100.00;101476.88;688373;28;840;-65
2023/09/24 00:06:09;;;;;;;5.70;3.75;;;;;;;10.23;100.00;101482.09;689353;28;1262;-65
2023/09/24 00:06:30;;;;;;;7.05;3.90;;;;;;;10.21;100.00;101469.88;688220;28;1695;-65
2023/09/24 00:06:50;;;;;;;7.72;4.20;;;;;;;10.20;100.00;101479.47;688356;28;790;-65
2023/09/24 00:07:11;;;;;;;7.73;4.47;;;;;;;10.16;100.00;101479.41;688380;28;4368;-65
2023/09/24 00:07:32;;;;;;;6.53;4.28;;;;;;;10.09;100.00;101486.31;691511;28;1854;-65
2023/09/24 00:07:52;;;;;;;6.65;4.55;;;;;;;10.08;100.00;101478.44;692953;28;1249;-65
2023/09/24 00:08:13;;;;;;;6.80;4.40;;;;;;;10.07;100.00;101477.59;693205;28;1244;-65
2023/09/24 00:08:33;;;;;;;7.50;4.47;;;;;;;10.09;100.00;101480.22;692013;28;1761;-66
2023/09/24 00:08:53;;;;;;;7.70;4.40;;;;;;;10.10;100.00;101477.63;693198;28;904;-65
2023/09/24 00:09:14;;;;;;;6.97;4.17;;;;;;;10.10;100.00;101480.22;693245;28;820;-65
2023/09/24 00:09:34;;;;;;;7.35;4.25;;;;;;;10.10;100.00;101480.22;691172;28;1728;-65
2023/09/24 00:09:56;;;;;;;6.25;4.03;;;;;;;10.14;100.00;101483.75;692897;28;1039;-66
2023/09/24 00:10:16;;;;;;;5.93;3.83;;;;;;;10.15;100.00;101475.94;692655;28;4821;-65
2023/09/24 00:10:37;;;;;;;6.40;3.95;;;;;;;10.16;100.00;101479.41;692052;28;1093;-66
2023/09/24 00:10:57;;;;;;;5.93;4.10;;;;;;;10.15;100.00;101481.16;692918;28;881;-66
2023/09/24 00:11:18;;;;;;;6.20;4.25;;;;;;;10.14;100.00;101474.16;693270;28;891;-65
2023/09/24 00:11:38;;;;;;;6.40;4.20;;;;;;;10.12;100.00;101470.69;691624;28;1244;-66
2023/09/24 00:11:59;;;;;;;6.37;4.13;;;;;;;10.11;100.00;101479.38;692719;28;1132;-66
2023/09/24 00:12:19;;;;;;;6.60;4.60;;;;;;;10.12;100.00;101475.00;692287;28;1906;-64
2023/09/24 00:12:39;;;;;;;7.03;4.23;;;;;;;10.14;100.00;101476.78;693117;28;891;-66
2023/09/24 00:13:00;;;;;;;7.63;4.15;;;;;;;10.13;100.00;101485.47;692876;28;868;-65
2023/09/24 00:13:21;;;;;;;6.93;4.20;;;;;;;10.14;100.00;101479.41;688642;28;4442;-65
2023/09/24 00:13:42;;;;;;;7.00;4.50;;;;;;;10.14;100.00;101479.41;689720;28;933;-65
2023/09/24 00:14:02;;;;;;;7.03;4.50;;;;;;;10.15;100.00;101481.16;689813;28;810;-65
2023/09/24 00:14:26;;;;;;;6.75;3.97;;;;;;;10.14;100.00;101482.00;688857;28;1759;-65
2023/09/24 00:14:46;;;;;;;6.03;4.35;;;;;;;10.13;100.00;101485.47;690235;28;1051;-65
2023/09/24 00:15:08;;;;;;;6.45;4.30;;;;;;;10.13;100.00;101482.88;690979;28;896;-65
2023/09/24 00:15:30;;;;;;;6.00;4.20;;;;;;;10.10;100.00;101482.84;690296;28;1678;-64
2023/09/24 00:15:52;;;;;;;6.75;4.40;;;;;;;10.07;100.00;101481.94;692976;28;840;-66
2023/09/24 00:16:13;;;;;;;6.30;4.18;;;;;;;10.02;100.00;101485.38;692377;28;4707;-65
2023/09/24 00:16:33;;;;;;;6.50;4.05;;;;;;;9.97;100.00;101479.22;691436;28;1455;-65
2023/09/24 00:16:54;;;;;;;6.47;4.47;;;;;;;9.97;100.00;101483.56;693100;28;924;-66
2023/09/24 00:17:16;;;;;;;6.32;4.15;;;;;;;9.96;100.00;101479.22;693000;28;1700;-65
2023/09/24 00:17:36;;;;;;;6.97;4.20;;;;;;;9.96;100.00;101485.31;691485;28;2350;-65
2023/09/24 00:17:59;;;;;;;6.60;4.17;;;;;;;9.99;100.00;101474.88;692927;28;849;-66
2023/09/24 00:18:20;;;;;;;7.25;4.38;;;;;;;10.01;100.00;101482.72;691921;28;1484;-65
2023/09/24 00:18:40;;;;;;;6.18;4.32;;;;;;;10.02;100.00;101487.09;693018;28;1369;-66
2023/09/24 00:19:02;;;;;;;6.37;4.17;;;;;;;9.99;100.00;101480.09;693007;28;777;-65
2023/09/24 00:19:24;;;;;;;6.43;4.03;;;;;;;9.99;100.00;101484.47;690885;28;5374;-65
2023/09/24 00:19:45;;;;;;;5.72;3.90;;;;;;;9.99;100.00;101485.34;692555;28;987;-65
2023/09/24 00:20:06;;;;;;;6.47;3.90;;;;;;;10.01;100.00;101485.34;689905;28;1428;-65
2023/09/24 00:20:27;;;;;;;6.22;3.90;;;;;;;10.05;100.00;101487.13;688458;28;2242;-66
2023/09/24 00:20:49;;;;;;;6.10;4.13;;;;;;;10.05;100.00;101485.41;690388;28;916;-65
2023/09/24 00:21:10;;;;;;;5.55;4.15;;;;;;;10.09;100.00;101480.22;690609;28;975;-65
2023/09/24 00:21:31;;;;;;;6.85;3.97;;;;;;;10.12;100.00;101488.97;687488;28;1984;-65
2023/09/24 00:21:51;;;;;;;5.47;3.70;;;;;;;10.12;100.00;101491.59;687773;28;1330;-65
2023/09/24 00:22:12;;;;;;;7.70;4.25;;;;;;;10.15;100.00;101475.03;689851;28;4383;-65
2023/09/24 00:22:33;;;;;;;7.57;4.10;;;;;;;10.17;100.00;101483.78;685016;28;2235;-66
2023/09/24 00:22:54;;;;;;;5.93;4.13;;;;;;;10.13;100.00;101475.03;685807;28;948;-65
2023/09/24 00:23:17;;;;;;;6.53;4.30;;;;;;;10.13;100.00;101482.00;687653;28;1563;-65
2023/09/24 00:23:39;;;;;;;5.90;3.78;;;;;;;10.14;100.00;101486.38;686351;28;1906;-65
2023/09/24 00:24:00;;;;;;;6.20;4.00;;;;;;;10.15;100.00;101483.78;689569;28;1356;-64
2023/09/24 00:24:20;;;;;;;6.10;3.90;;;;;;;10.13;100.00;101482.88;689839;28;1047;-65
2023/09/24 00:24:41;;;;;;;6.47;3.88;;;;;;;10.11;100.00;101481.97;692656;28;994;-65
2023/09/24 00:25:02;;;;;;;5.82;3.78;;;;;;;10.14;100.00;101484.63;693055;28;880;-64
2023/09/24 00:25:23;;;;;;;6.55;3.70;;;;;;;10.16;100.00;101482.91;690855;28;4356;-65
2023/09/24 00:25:49;;;;;;;6.97;3.97;;;;;;;10.13;100.00;101485.47;692655;28;1425;-65
2023/09/24 00:26:09;;;;;;;6.93;4.10;;;;;;;10.07;100.00;101489.78;689094;28;932;-65
2023/09/24 00:26:30;;;;;;;6.23;3.93;;;;;;;10.02;100.00;101484.50;686962;28;1826;-66
2023/09/24 00:26:50;;;;;;;6.17;3.90;;;;;;;10.00;100.00;101484.47;685907;28;830;-65
2023/09/24 00:27:11;;;;;;;6.37;4.00;;;;;;;9.99;100.00;101487.94;682685;28;1294;-66
2023/09/24 00:27:31;;;;;;;6.10;3.80;;;;;;;10.05;100.00;101493.25;681919;28;1908;-66
2023/09/24 00:27:53;;;;;;;5.97;3.80;;;;;;;10.08;100.00;101488.91;683714;28;790;-65
2023/09/24 00:28:13;;;;;;;5.72;3.80;;;;;;;10.08;100.00;101486.28;680833;28;4396;-66
2023/09/24 00:28:37;;;;;;;6.97;4.10;;;;;;;10.07;100.00;101492.41;680565;28;1068;-66
2023/09/24 00:28:57;;;;;;;6.13;3.95;;;;;;;10.08;100.00;101495.03;680884;28;1403;-66
2023/09/24 00:29:18;;;;;;;6.22;4.13;;;;;;;10.08;100.00;101488.91;684761;28;810;-66
2023/09/24 00:29:40;;;;;;;6.30;3.83;;;;;;;10.07;100.00;101487.19;685507;28;1858;-66
2023/09/24 00:30:00;;;;;;;5.75;3.85;;;;;;;10.05;100.00;101495.88;687637;28;1340;-66
2023/09/24 00:30:20;;;;;;;5.13;3.88;;;;;;;10.07;100.00;101493.25;691613;28;2313;-66
2023/09/24 00:30:42;;;;;;;5.20;3.63;;;;;;;10.04;100.00;101490.63;692564;28;1289;-66
2023/09/24 00:31:03;;;;;;;6.53;3.80;;;;;;;10.02;100.00;101490.63;692309;28;912;-65
2023/09/24 00:31:25;;;;;;;6.55;3.95;;;;;;;9.97;100.00;101491.41;688395;28;4649;-66
2023/09/24 00:31:45;;;;;;;6.07;3.67;;;;;;;9.93;100.00;101492.22;688472;28;928;-66
2023/09/24 00:32:06;;;;;;;5.10;3.90;;;;;;;9.88;100.00;101487.84;692355;28;952;-66
2023/09/24 00:32:26;;;;;;;5.68;3.90;;;;;;;9.86;100.00;101492.16;690376;28;2322;-66
2023/09/24 00:32:46;;;;;;;5.30;3.90;;;;;;;9.85;100.00;101493.00;689462;28;912;-65
2023/09/24 00:33:07;;;;;;;5.33;3.97;;;;;;;9.83;100.00;101486.91;690453;28;1257;-66
2023/09/24 00:33:29;;;;;;;6.68;3.88;;;;;;;9.83;100.00;101493.84;690191;28;1717;-66
2023/09/24 00:33:52;;;;;;;6.43;3.85;;;;;;;9.81;100.00;101488.63;688385;28;1231;-65
2023/09/24 00:34:13;;;;;;;5.80;3.72;;;;;;;9.82;100.00;101493.00;685664;28;4544;-66
2023/09/24 00:34:33;;;;;;;7.22;3.83;;;;;;;9.83;100.00;101489.53;685782;28;1049;-66
2023/09/24 00:34:55;;;;;;;7.37;3.77;;;;;;;9.84;100.00;101490.38;689299;28;796;-66
2023/09/24 00:35:16;;;;;;;5.50;3.90;;;;;;;9.82;100.00;101493.00;689040;28;1513;-66
2023/09/24 00:35:37;;;;;;;6.90;3.85;;;;;;;9.82;100.00;101490.38;687824;28;1731;-63
2023/09/24 00:35:59;;;;;;;6.50;3.83;;;;;;;9.83;100.00;101489.53;688356;28;777;-64
2023/09/24 00:36:20;;;;;;;6.03;3.92;;;;;;;9.85;100.00;101493.00;690577;28;2137;-64
2023/09/24 00:36:41;;;;;;;6.28;3.80;;;;;;;9.83;100.00;101492.13;692424;28;943;-65
2023/09/24 00:37:01;;;;;;;6.07;3.90;;;;;;;9.81;100.00;101499.06;693120;28;782;-65
2023/09/24 00:37:22;;;;;;;6.20;3.88;;;;;;;9.82;100.00;101485.16;690674;28;4507;-65
2023/09/24 00:37:42;;;;;;;5.77;3.70;;;;;;;9.82;100.00;101493.00;693015;28;927;-63
2023/09/24 00:38:03;;;;;;;6.38;3.80;;;;;;;9.81;100.00;101490.38;693030;28;1179;-65
2023/09/24 00:38:23;;;;;;;6.00;3.80;;;;;;;9.79;100.00;101487.75;686916;28;1141;-64
2023/09/24 00:38:43;;;;;;;6.95;3.88;;;;;;;9.79;100.00;101486.84;688052;28;865;-64
2023/09/24 00:39:04;;;;;;;5.57;3.87;;;;;;;9.79;100.00;101486.84;688347;28;1052;-64
2023/09/24 00:39:25;;;;;;;5.32;3.80;;;;;;;9.78;100.00;101487.72;686614;28;1797;-64
2023/09/24 00:39:45;;;;;;;6.20;3.67;;;;;;;9.77;100.00;101489.44;688109;28;933;-64
2023/09/24 00:40:09;;;;;;;5.40;3.72;;;;;;;9.80;100.00;101489.50;688123;28;1012;-65
2023/09/24 00:40:30;;;;;;;6.00;3.70;;;;;;;9.82;100.00;101492.13;688639;28;6018;-64
2023/09/24 00:40:50;;;;;;;5.70;3.73;;;;;;;9.83;100.00;101489.53;688847;28;1299;-65
2023/09/24 00:41:11;;;;;;;6.13;3.63;;;;;;;9.80;100.00;101483.38;684304;28;986;-64
2023/09/24 00:41:31;;;;;;;5.53;3.80;;;;;;;9.78;100.00;101491.19;681978;28;1879;-65
2023/09/24 00:41:51;;;;;;;5.60;3.80;;;;;;;9.80;100.00;101486.88;680080;29;842;-64
2023/09/24 00:42:13;;;;;;;6.80;3.90;;;;;;;9.83;100.00;101483.41;680723;29;5501;-66
2023/09/24 00:42:33;;;;;;;6.35;3.70;;;;;;;9.83;100.00;101484.31;680771;28;1509;-64
2023/09/24 00:42:54;;;;;;;7.15;3.63;;;;;;;9.83;100.00;101486.91;684602;28;909;-65
2023/09/24 00:43:32;;;;;;;6.57;3.75;;;;;;;9.83;100.00;101486.91;687422;28;4569;-64
2023/09/24 00:43:53;;;;;;;6.40;3.58;;;;;;;9.79;100.00;101481.63;687500;28;1463;-65
2023/09/24 00:44:14;;;;;;;7.23;3.50;;;;;;;9.80;100.00;101480.78;688010;28;1546;-65
2023/09/24 00:44:36;;;;;;;7.30;3.85;;;;;;;9.80;100.00;101489.50;687661;28;1854;-65
2023/09/24 00:44:57;;;;;;;6.10;3.80;;;;;;;9.80;100.00;101488.59;686527;28;2057;-65
2023/09/24 00:45:17;;;;;;;6.23;3.80;;;;;;;9.76;100.00;101485.09;688261;28;1911;-65
2023/09/24 00:45:37;;;;;;;6.20;3.90;;;;;;;9.76;100.00;101485.09;686906;28;1458;-65
2023/09/24 00:46:04;;;;;;;6.70;3.70;;;;;;;9.75;100.00;101478.13;690547;28;1040;-65
2023/09/24 00:46:25;;;;;;;7.15;3.72;;;;;;;9.74;100.00;101478.97;687693;28;4384;-64
2023/09/24 00:46:46;;;;;;;5.30;3.70;;;;;;;9.75;100.00;101479.81;689102;28;912;-64
2023/09/24 00:47:09;;;;;;;5.80;3.75;;;;;;;9.75;100.00;101480.72;692004;28;821;-65
2023/09/24 00:47:30;;;;;;;7.28;3.88;;;;;;;9.75;100.00;101488.56;687491;28;1730;-65
2023/09/24 00:47:51;;;;;;;7.87;3.90;;;;;;;9.72;100.00;101480.69;686378;28;1457;-64
2023/09/24 00:48:11;;;;;;;5.95;3.90;;;;;;;9.74;100.00;101489.41;687751;28;944;-65
2023/09/24 00:48:32;;;;;;;6.93;3.90;;;;;;;9.73;100.00;101486.78;682304;28;1728;-65
2023/09/24 00:48:56;;;;;;;6.13;3.67;;;;;;;9.69;100.00;101485.84;681480;29;909;-65
2023/09/24 00:49:19;;;;;;;5.75;3.47;;;;;;;9.70;100.00;101480.66;680068;28;4552;-65
2023/09/24 00:49:42;;;;;;;6.85;3.55;;;;;;;9.71;100.00;101482.41;682698;28;2620;-65
2023/09/24 00:50:07;;;;;;;6.78;3.60;;;;;;;9.72;100.00;101485.91;685100;28;936;-65
2023/09/24 00:50:33;;;;;;;6.75;3.72;;;;;;;9.73;100.00;101487.66;683487;28;2413;-65
2023/09/24 00:50:59;;;;;;;5.50;3.40;;;;;;;9.70;100.00;101483.25;685625;28;987;-65
2023/09/24 00:51:22;;;;;;;7.00;3.90;;;;;;;9.71;100.00;101486.75;685888;28;1657;-65
2023/09/24 00:51:42;;;;;;;5.55;3.50;;;;;;;9.71;100.00;101492.00;686394;28;901;-65
2023/09/24 00:52:03;;;;;;;5.07;3.40;;;;;;;9.71;100.00;101492.00;685976;28;904;-64
2023/09/24 00:52:25;;;;;;;4.90;3.33;;;;;;;9.72;100.00;101488.53;687432;28;4700;-65
2023/09/24 00:52:46;;;;;;;4.65;3.28;;;;;;;9.72;100.00;101491.13;687594;28;1314;-65
2023/09/24 00:53:08;;;;;;;6.53;3.60;;;;;;;9.71;100.00;101492.00;685697;28;1413;-66
2023/09/24 00:53:30;;;;;;;5.72;3.65;;;;;;;9.71;100.00;101486.75;683640;28;2358;-64
2023/09/24 00:53:52;;;;;;;5.63;3.47;;;;;;;9.70;100.00;101487.63;685227;28;956;-64
2023/09/24 00:54:13;;;;;;;7.25;3.50;;;;;;;9.70;100.00;101492.84;685094;28;838;-64
2023/09/24 00:54:34;;;;;;;7.35;3.55;;;;;;;9.69;100.00;101497.19;683216;28;1708;-66
2023/09/24 00:54:56;;;;;;;5.33;3.30;;;;;;;9.68;100.00;101491.97;685449;28;857;-64
2023/09/24 00:55:19;;;;;;;5.80;3.58;;;;;;;9.65;100.00;101495.41;684291;28;4392;-64
2023/09/24 00:55:40;;;;;;;4.70;3.38;;;;;;;9.63;100.00;101491.03;683825;28;1743;-64
2023/09/24 00:56:00;;;;;;;6.18;3.50;;;;;;;9.63;100.00;101491.88;685232;28;1228;-65
2023/09/24 00:56:22;;;;;;;6.77;3.63;;;;;;;9.64;100.00;101487.56;684030;28;1039;-65
2023/09/24 00:56:43;;;;;;;7.13;3.80;;;;;;;9.67;100.00;101493.66;689214;28;861;-64
2023/09/24 00:57:05;;;;;;;5.10;3.55;;;;;;;9.67;100.00;101492.81;687749;28;1040;-65
2023/09/24 00:57:26;;;;;;;5.40;3.55;;;;;;;9.69;100.00;101491.06;684292;28;1866;-65
2023/09/24 00:57:49;;;;;;;5.22;3.58;;;;;;;9.67;100.00;101487.59;687835;28;996;-65
2023/09/24 00:58:10;;;;;;;5.93;3.55;;;;;;;9.65;100.00;101489.28;687494;28;4396;-65
2023/09/24 00:58:34;;;;;;;5.03;3.42;;;;;;;9.64;100.00;101495.38;686718;28;1442;-65
2023/09/24 00:58:55;;;;;;;5.22;3.22;;;;;;;9.60;100.00;101491.00;686051;28;884;-65
2023/09/24 00:59:16;;;;;;;4.90;3.40;;;;;;;9.57;100.00;101497.03;688052;28;929;-65
2023/09/24 00:59:38;;;;;;;4.87;3.30;;;;;;;9.56;100.00;101497.88;688675;28;2384;-65
2023/09/24 01:00:00;;;;;;;4.97;3.35;;;;;;;9.57;100.00;101493.53;689417;28;1412;-65
2023/09/24 01:00:22;;;;;;;5.10;3.50;;;;;;;9.57;100.00;101499.66;688313;28;904;-66
2023/09/24 01:00:46;;;;;;;5.55;3.55;;;;;;;9.56;100.00;101492.66;691927;28;911;-65
2023/09/24 01:01:06;;;;;;;5.72;3.45;;;;;;;9.60;100.00;101497.06;686535;28;4548;-64
2023/09/24 01:01:29;;;;;;;4.65;3.38;;;;;;;9.60;100.00;101498.81;683695;28;1739;-65
2023/09/24 01:01:49;;;;;;;4.82;3.22;;;;;;;9.60;100.00;101501.44;685718;28;850;-65
2023/09/24 01:02:10;;;;;;;5.32;3.30;;;;;;;9.59;100.00;101499.66;686333;28;1007;-65
2023/09/24 01:02:32;;;;;;;5.85;3.55;;;;;;;9.56;100.00;101500.50;684878;28;1445;-65
2023/09/24 01:02:57;;;;;;;5.80;3.58;;;;;;;9.54;100.00;101502.22;684085;28;1066;-65
2023/09/24 01:03:22;;;;;;;5.55;3.50;;;;;;;9.49;100.00;101496.94;690005;28;921;-65
2023/09/24 01:03:43;;;;;;;4.70;3.40;;;;;;;9.51;100.00;101496.94;689194;28;1204;-65
2023/09/24 01:04:09;;;;;;;4.97;3.58;;;;;;;9.50;100.00;101497.81;689667;28;900;-65
2023/09/24 01:04:33;;;;;;;5.15;3.33;;;;;;;9.51;100.00;101495.22;687049;28;5901;-65
2023/09/24 01:04:53;;;;;;;6.50;3.42;;;;;;;9.51;100.00;101497.84;686823;28;844;-63
2023/09/24 01:05:14;;;;;;;5.93;3.50;;;;;;;9.51;100.00;101497.84;686582;28;1922;-65
2023/09/24 01:05:34;;;;;;;5.25;3.50;;;;;;;9.48;100.00;101497.78;684423;28;2291;-65
2023/09/24 01:05:55;;;;;;;5.33;3.53;;;;;;;9.49;100.00;101496.94;686204;28;770;-65
2023/09/24 01:06:17;;;;;;;5.78;3.33;;;;;;;9.50;100.00;101497.81;685111;28;1087;-66
2023/09/24 01:06:37;;;;;;;4.70;3.20;;;;;;;9.49;100.00;101502.16;684286;28;2558;-65
2023/09/24 01:06:58;;;;;;;5.57;3.28;;;;;;;9.46;100.00;101494.28;685418;28;810;-66
2023/09/24 01:07:21;;;;;;;5.33;3.30;;;;;;;9.45;100.00;101499.50;687913;28;4267;-66
2023/09/24 01:07:42;;;;;;;5.80;3.30;;;;;;;9.43;100.00;101502.09;688851;28;3185;-65
2023/09/24 01:08:04;;;;;;;4.63;3.38;;;;;;;9.42;100.00;101500.31;690571;28;1039;-65
2023/09/24 01:08:28;;;;;;;4.55;3.20;;;;;;;9.42;100.00;101492.50;689613;28;2426;-65
2023/09/24 01:08:48;;;;;;;5.13;3.30;;;;;;;9.41;100.00;101500.31;691766;28;908;-65
2023/09/24 01:09:11;;;;;;;5.63;3.75;;;;;;;9.40;100.00;101499.44;693608;28;904;-66
2023/09/24 01:09:34;;;;;;;5.65;4.00;;;;;;;9.37;100.00;101494.16;692326;28;2077;-65
2023/09/24 01:09:55;;;;;;;5.72;3.75;;;;;;;9.34;100.00;101496.72;692597;28;1466;-65
2023/09/24 01:10:16;;;;;;;6.25;3.63;;;;;;;9.31;100.00;101499.31;692914;28;4411;-65
2023/09/24 01:10:38;;;;;;;4.97;3.60;;;;;;;9.29;100.00;101499.28;689685;28;1781;-65
2023/09/24 01:11:00;;;;;;;6.50;3.53;;;;;;;9.26;100.00;101495.75;690425;28;983;-65
2023/09/24 01:11:20;;;;;;;5.30;3.50;;;;;;;9.26;100.00;101507.03;690472;28;1243;-66
2023/09/24 01:11:40;;;;;;;6.07;3.80;;;;;;;9.26;100.00;101498.34;689780;28;1751;-65
2023/09/24 01:12:03;;;;;;;5.80;3.90;;;;;;;9.28;100.00;101502.75;689642;28;1123;-65
2023/09/24 01:12:29;;;;;;;5.20;3.42;;;;;;;9.29;100.00;101501.00;689344;28;1749;-64
2023/09/24 01:13:01;;;;;;;5.53;3.20;;;;;;;9.29;100.00;101507.13;690602;28;876;-66
2023/09/24 01:13:24;;;;;;;4.90;3.38;;;;;;;9.33;100.00;101505.41;690161;28;4465;-65
2023/09/24 01:13:45;;;;;;;4.47;3.30;;;;;;;9.31;100.00;101507.13;690100;28;984;-65
2023/09/24 01:14:07;;;;;;;5.55;3.60;;;;;;;9.30;100.00;101501.00;689917;28;1255;-65
2023/09/24 01:14:28;;;;;;;5.53;3.60;;;;;;;9.29;100.00;101508.81;690626;28;1678;-65
2023/09/24 01:14:49;;;;;;;5.60;3.70;;;;;;;9.27;100.00;101502.72;693523;28;1136;-66
2023/09/24 01:15:13;;;;;;;5.30;3.60;;;;;;;9.25;100.00;101504.41;687640;28;825;-65
2023/09/24 01:15:34;;;;;;;5.45;3.58;;;;;;;9.23;100.00;101501.78;686526;28;1575;-65
2023/09/24 01:15:55;;;;;;;5.65;3.55;;;;;;;9.20;100.00;101496.53;684603;28;5841;-65
2023/09/24 01:16:15;;;;;;;6.30;3.70;;;;;;;9.18;100.00;101509.56;684170;28;4464;-65
2023/09/24 01:16:37;;;;;;;5.28;3.70;;;;;;;9.17;100.00;101507.81;680267;29;1017;-65
2023/09/24 01:16:58;;;;;;;5.35;3.53;;;;;;;9.16;100.00;101506.03;680449;28;1999;-66
2023/09/24 01:17:20;;;;;;;6.10;3.90;;;;;;;9.15;100.00;101506.91;684013;28;826;-66
2023/09/24 01:17:40;;;;;;;6.07;3.45;;;;;;;9.14;100.00;101494.72;684022;28;2033;-66
2023/09/24 01:18:04;;;;;;;5.90;3.73;;;;;;;9.15;100.00;101501.69;685643;28;806;-66
2023/09/24 01:18:27;;;;;;;5.00;3.65;;;;;;;9.15;100.00;101503.41;685837;28;2300;-65
2023/09/24 01:18:47;;;;;;;4.80;3.30;;;;;;;9.14;100.00;101509.50;689948;28;1139;-65
2023/09/24 01:19:08;;;;;;;4.80;3.63;;;;;;;9.16;100.00;101502.56;689099;28;4487;-65
2023/09/24 01:19:29;;;;;;;4.60;3.50;;;;;;;9.16;100.00;101499.97;688021;28;1548;-66
2023/09/24 01:19:53;;;;;;;5.40;3.58;;;;;;;9.19;100.00;101506.09;687086;28;924;-65
2023/09/24 01:20:14;;;;;;;5.00;3.50;;;;;;;9.22;100.00;101499.16;685014;28;838;-65
2023/09/24 01:20:36;;;;;;;5.60;3.72;;;;;;;9.25;100.00;101501.81;686134;28;2331;-65
2023/09/24 01:20:56;;;;;;;5.70;3.40;;;;;;;9.23;100.00;101500.94;690287;28;891;-65
2023/09/24 01:21:17;;;;;;;5.70;3.55;;;;;;;9.22;100.00;101500.06;690547;28;892;-65
2023/09/24 01:21:39;;;;;;;4.80;3.40;;;;;;;9.22;100.00;101509.59;691630;28;2685;-65
2023/09/24 01:22:01;;;;;;;5.13;3.55;;;;;;;9.23;100.00;101498.31;693407;28;805;-65
2023/09/24 01:22:22;;;;;;;4.68;3.50;;;;;;;9.23;100.00;101498.31;688111;28;4649;-65
2023/09/24 01:22:42;;;;;;;5.47;3.72;;;;;;;9.18;100.00;101499.13;688246;28;1771;-66
2023/09/24 01:23:06;;;;;;;5.53;3.70;;;;;;;9.18;100.00;101495.66;689056;28;1195;-66
2023/09/24 01:23:29;;;;;;;5.25;3.40;;;;;;;9.21;100.00;101503.53;687266;28;2463;-65
2023/09/24 01:23:50;;;;;;;4.95;3.40;;;;;;;9.22;100.00;101499.16;689482;28;1036;-66
2023/09/24 01:24:10;;;;;;;5.13;3.57;;;;;;;9.20;100.00;101504.38;689561;28;865;-66
2023/09/24 01:24:30;;;;;;;4.75;3.78;;;;;;;9.22;100.00;101499.16;686926;28;2412;-65
2023/09/24 01:24:52;;;;;;;4.97;3.50;;;;;;;9.20;100.00;101502.63;686005;28;925;-65
2023/09/24 01:25:13;;;;;;;4.88;3.50;;;;;;;9.20;100.00;101504.38;687551;28;4440;-65
2023/09/24 01:25:35;;;;;;;5.05;3.30;;;;;;;9.19;100.00;101502.59;689088;28;1964;-65
2023/09/24 01:25:56;;;;;;;5.43;3.40;;;;;;;9.17;100.00;101504.31;690855;28;825;-66
2023/09/24 01:26:18;;;;;;;5.28;3.50;;;;;;;9.18;100.00;101509.56;690604;28;963;-65
2023/09/24 01:26:38;;;;;;;6.30;3.80;;;;;;;9.17;100.00;101513.03;685527;28;1820;-65
2023/09/24 01:26:59;;;;;;;5.57;3.43;;;;;;;9.18;100.00;101508.69;687268;28;940;-66
2023/09/24 01:27:19;;;;;;;4.70;3.33;;;;;;;9.22;100.00;101505.28;687190;28;1226;-66
2023/09/24 01:27:39;;;;;;;4.57;3.30;;;;;;;9.25;100.00;101512.25;686357;28;1535;-65
2023/09/24 01:28:00;;;;;;;5.43;3.43;;;;;;;9.20;100.00;101504.38;685161;28;1264;-66
2023/09/24 01:28:21;;;;;;;5.55;3.47;;;;;;;9.20;100.00;101507.84;685017;28;4352;-65
2023/09/24 01:28:42;;;;;;;5.40;3.25;;;;;;;9.22;100.00;101509.59;684799;28;2225;-65
2023/09/24 01:29:02;;;;;;;5.82;3.40;;;;;;;9.21;100.00;101508.75;687936;28;1269;-65
2023/09/24 01:29:24;;;;;;;5.33;3.50;;;;;;;9.20;100.00;101513.06;686749;28;873;-65
2023/09/24 01:29:44;;;;;;;5.05;3.50;;;;;;;9.19;100.00;101505.22;690174;28;963;-64
2023/09/24 01:30:05;;;;;;;6.00;3.60;;;;;;;9.18;100.00;101512.16;689174;28;869;-65
2023/09/24 01:30:28;;;;;;;5.00;3.50;;;;;;;9.17;100.00;101512.16;687814;28;2539;-65
2023/09/24 01:30:48;;;;;;;4.75;3.35;;;;;;;9.16;100.00;101511.25;688603;28;976;-65
2023/09/24 01:31:08;;;;;;;4.67;3.20;;;;;;;9.15;100.00;101512.13;689297;28;4900;-65
2023/09/24 01:31:30;;;;;;;5.03;3.10;;;;;;;9.16;100.00;101511.25;688157;28;1923;-65
2023/09/24 01:31:51;;;;;;;5.57;3.40;;;;;;;9.12;100.00;101506.84;689712;28;935;-65
2023/09/24 01:32:11;;;;;;;4.60;3.30;;;;;;;9.10;100.00;101512.94;690632;28;1330;-65
2023/09/24 01:32:32;;;;;;;4.97;3.38;;;;;;;9.10;100.00;101513.78;688647;28;1805;-66
2023/09/24 01:32:52;;;;;;;5.30;3.40;;;;;;;9.10;100.00;101519.00;689107;28;1362;-65
2023/09/24 01:33:13;;;;;;;4.93;3.10;;;;;;;9.10;100.00;101516.41;689910;28;1209;-65
2023/09/24 01:33:36;;;;;;;5.38;3.30;;;;;;;9.09;100.00;101512.03;686900;28;2537;-65
2023/09/24 01:33:59;;;;;;;5.03;3.22;;;;;;;9.08;100.00;101512.88;687828;28;1051;-65
2023/09/24 01:34:20;;;;;;;4.80;3.60;;;;;;;9.05;100.00;101515.44;685379;28;4308;-64
2023/09/24 01:34:40;;;;;;;5.13;3.60;;;;;;;9.06;100.00;101514.59;685059;28;1942;-65
2023/09/24 01:35:06;;;;;;;4.87;3.53;;;;;;;9.07;100.00;101521.56;683491;28;888;-65
2023/09/24 01:35:31;;;;;;;4.70;3.20;;;;;;;9.04;100.00;101521.50;685602;28;2321;-64
2023/09/24 01:35:55;;;;;;;4.80;3.40;;;;;;;9.04;100.00;101518.91;685795;28;1028;-67
2023/09/24 01:36:17;;;;;;;4.97;3.25;;;;;;;9.05;100.00;101518.06;684895;28;904;-65
2023/09/24 01:36:38;;;;;;;5.75;3.30;;;;;;;9.09;100.00;101512.03;686139;28;1743;-65
2023/09/24 01:36:58;;;;;;;5.20;3.47;;;;;;;9.08;100.00;101522.44;686163;28;924;-64
2023/09/24 01:37:21;;;;;;;4.50;3.30;;;;;;;9.03;100.00;101519.78;685555;28;5017;-64
2023/09/24 01:37:41;;;;;;;4.50;3.28;;;;;;;9.01;100.00;101517.16;684102;28;1737;-65
2023/09/24 01:38:05;;;;;;;5.60;3.20;;;;;;;9.01;100.00;101522.38;687028;28;849;-65
2023/09/24 01:38:26;;;;;;;5.05;3.00;;;;;;;9.02;100.00;101524.09;688336;28;1899;-65
2023/09/24 01:38:47;;;;;;;5.47;3.40;;;;;;;9.02;100.00;101518.88;690684;28;888;-65
2023/09/24 01:39:08;;;;;;;4.70;3.30;;;;;;;9.03;100.00;101520.63;687169;28;1178;-65
2023/09/24 01:39:31;;;;;;;5.37;3.47;;;;;;;9.01;100.00;101517.16;685612;28;2536;-65
2023/09/24 01:39:51;;;;;;;4.97;3.17;;;;;;;9.01;100.00;101519.75;686386;28;854;-65
2023/09/24 01:40:19;;;;;;;4.72;3.30;;;;;;;9.02;100.00;101520.63;685450;28;4586;-63
2023/09/24 01:40:39;;;;;;;6.40;3.30;;;;;;;9.01;100.00;101516.25;683362;28;1884;-65
2023/09/24 01:41:00;;;;;;;5.80;3.30;;;;;;;8.99;100.00;101520.59;686043;28;1360;-64
2023/09/24 01:41:22;;;;;;;4.63;3.05;;;;;;;8.99;100.00;101523.19;682719;28;857;-65
2023/09/24 01:41:42;;;;;;;4.97;3.30;;;;;;;8.99;100.00;101520.59;682251;28;1767;-65
2023/09/24 01:42:03;;;;;;;5.27;3.10;;;;;;;8.99;100.00;101520.59;685237;28;854;-64
2023/09/24 01:42:24;;;;;;;5.55;3.30;;;;;;;8.99;100.00;101517.97;683436;28;5492;-65